Aviation Digital Data Service (ADDS)

Output produced by METARs form (1418 UTC 28 November 2014)
found at http://www.aviationweather.gov/adds/metars/
 
KBMI 281329Z 2813/2912 16008KT P6SM BKN120 
     FM281500 17015G22KT P6SM SCT120 
     FM290000 18012KT P6SM SCT050 BKN150 
     FM290600 18012KT P6SM SCT050